sensor_id;sensor_type;location;lat;lon;timestamp;pressure;altitude;pressure_sealevel;temperature;humidity
63399;BME280;49533;-34.520;150.798;2023-07-31T00:02:03;101178.47;;;20.17;37.44
63399;BME280;49533;-34.520;150.798;2023-07-31T00:04:30;101145.88;;;20.07;37.03
63399;BME280;49533;-34.520;150.798;2023-07-31T00:06:57;101135.94;;;20.02;37.03
63399;BME280;49533;-34.520;150.798;2023-07-31T00:09:24;101164.28;;;20.34;37.23
63399;BME280;49533;-34.520;150.798;2023-07-31T00:11:52;101163.22;;;20.39;37.13
63399;BME280;49533;-34.520;150.798;2023-07-31T00:14:19;101165.72;;;20.44;36.57
63399;BME280;49533;-34.520;150.798;2023-07-31T00:16:46;101136.25;;;20.32;36.45
63399;BME280;49533;-34.520;150.798;2023-07-31T00:19:13;101098.44;;;20.17;36.56
63399;BME280;49533;-34.520;150.798;2023-07-31T00:21:40;101153.81;;;20.56;36.50
63399;BME280;49533;-34.520;150.798;2023-07-31T00:24:07;101166.16;;;20.62;36.42
63399;BME280;49533;-34.520;150.798;2023-07-31T00:26:34;101052.25;;;19.94;36.23
63399;BME280;49533;-34.520;150.798;2023-07-31T00:29:01;101133.38;;;20.60;36.45
63399;BME280;49533;-34.520;150.798;2023-07-31T00:31:28;101137.66;;;20.58;36.26
63399;BME280;49533;-34.520;150.798;2023-07-31T00:33:55;101133.91;;;20.66;36.31
63399;BME280;49533;-34.520;150.798;2023-07-31T00:36:22;101118.34;;;20.58;36.28
63399;BME280;49533;-34.520;150.798;2023-07-31T00:38:49;101147.84;;;20.73;35.61
63399;BME280;49533;-34.520;150.798;2023-07-31T00:41:17;101150.72;;;20.77;34.16
63399;BME280;49533;-34.520;150.798;2023-07-31T00:43:44;101148.47;;;20.82;34.17
63399;BME280;49533;-34.520;150.798;2023-07-31T00:46:11;101101.72;;;20.54;34.27
63399;BME280;49533;-34.520;150.798;2023-07-31T00:48:39;101157.63;;;20.87;34.46
63399;BME280;49533;-34.520;150.798;2023-07-31T00:51:07;101139.72;;;20.80;34.40
63399;BME280;49533;-34.520;150.798;2023-07-31T00:53:35;101100.19;;;20.57;34.71
63399;BME280;49533;-34.520;150.798;2023-07-31T00:56:03;101139.72;;;20.80;35.12
63399;BME280;49533;-34.520;150.798;2023-07-31T00:58:31;101153.22;;;21.01;34.71
63399;BME280;49533;-34.520;150.798;2023-07-31T01:00:58;101151.69;;;21.04;34.74
63399;BME280;49533;-34.520;150.798;2023-07-31T01:03:25;101138.19;;;20.99;35.08
63399;BME280;49533;-34.520;150.798;2023-07-31T01:06:12;101149.06;;;21.11;34.64
63399;BME280;49533;-34.520;150.798;2023-07-31T01:08:54;101147.91;;;21.12;34.55
63399;BME280;49533;-34.520;150.798;2023-07-31T01:11:28;101147.19;;;21.15;34.40
63399;BME280;49533;-34.520;150.798;2023-07-31T01:13:57;101141.72;;;21.19;34.82
63399;BME280;49533;-34.520;150.798;2023-07-31T01:16:25;101080.50;;;20.97;34.94
63399;BME280;49533;-34.520;150.798;2023-07-31T01:18:53;101115.59;;;21.16;34.84
63399;BME280;49533;-34.520;150.798;2023-07-31T01:21:46;101126.06;;;21.26;34.65
63399;BME280;49533;-34.520;150.798;2023-07-31T01:24:23;101061.53;;;20.96;34.99
63399;BME280;49533;-34.520;150.798;2023-07-31T01:27:05;101098.31;;;21.19;34.90
63399;BME280;49533;-34.520;150.798;2023-07-31T01:29:40;101085.28;;;21.20;34.54
63399;BME280;49533;-34.520;150.798;2023-07-31T01:32:11;101108.88;;;21.37;34.45
63399;BME280;49533;-34.520;150.798;2023-07-31T01:34:40;101102.69;;;21.40;34.63
63399;BME280;49533;-34.520;150.798;2023-07-31T01:37:08;101097.56;;;21.42;34.45
63399;BME280;49533;-34.520;150.798;2023-07-31T01:39:35;101089.94;;;21.35;34.31
63399;BME280;49533;-34.520;150.798;2023-07-31T01:42:02;101095.69;;;21.46;34.03
63399;BME280;49533;-34.520;150.798;2023-07-31T01:44:29;101082.66;;;21.46;33.76
63399;BME280;49533;-34.520;150.798;2023-07-31T01:46:57;101051.41;;;21.23;34.07
63399;BME280;49533;-34.520;150.798;2023-07-31T01:49:26;101090.94;;;21.46;33.63
63399;BME280;49533;-34.520;150.798;2023-07-31T01:51:53;101090.63;;;21.52;33.67
63399;BME280;49533;-34.520;150.798;2023-07-31T01:54:20;100991.63;;;20.92;33.68
63399;BME280;49533;-34.520;150.798;2023-07-31T01:56:47;101090.72;;;21.55;34.12
63399;BME280;49533;-34.520;150.798;2023-07-31T01:59:14;101074.44;;;21.50;33.79
63399;BME280;49533;-34.520;150.798;2023-07-31T02:01:41;101082.47;;;21.59;33.49
63399;BME280;49533;-34.520;150.798;2023-07-31T02:04:08;101074.97;;;21.59;33.75
63399;BME280;49533;-34.520;150.798;2023-07-31T02:06:35;101073.44;;;21.62;34.03
63399;BME280;49533;-34.520;150.798;2023-07-31T02:09:02;101064.78;;;21.63;33.39
63399;BME280;49533;-34.520;150.798;2023-07-31T02:11:30;101025.28;;;21.40;33.13
63399;BME280;49533;-34.520;150.798;2023-07-31T02:13:57;101045.31;;;21.56;32.55
63399;BME280;49533;-34.520;150.798;2023-07-31T02:16:25;101056.19;;;21.68;32.40
63399;BME280;49533;-34.520;150.798;2023-07-31T02:18:52;101001.09;;;21.37;32.41
63399;BME280;49533;-34.520;150.798;2023-07-31T02:21:19;101012.78;;;21.49;32.04
63399;BME280;49533;-34.520;150.798;2023-07-31T02:23:46;101036.50;;;21.74;31.74
63399;BME280;49533;-34.520;150.798;2023-07-31T02:26:13;101024.69;;;21.77;31.73
63399;BME280;49533;-34.520;150.798;2023-07-31T02:28:40;101031.44;;;21.79;32.02
63399;BME280;49533;-34.520;150.798;2023-07-31T02:31:09;101020.03;;;21.81;31.41
63399;BME280;49533;-34.520;150.798;2023-07-31T02:33:36;100978.94;;;21.56;31.44
63399;BME280;49533;-34.520;150.798;2023-07-31T02:36:03;100971.44;;;21.57;31.26
63399;BME280;49533;-34.520;150.798;2023-07-31T02:38:30;101003.84;;;21.83;30.78
63399;BME280;49533;-34.520;150.798;2023-07-31T02:40:57;101008.22;;;21.84;31.07
63399;BME280;49533;-34.520;150.798;2023-07-31T02:43:25;100992.84;;;21.86;30.42
63399;BME280;49533;-34.520;150.798;2023-07-31T02:45:54;100961.28;;;21.64;31.22
63399;BME280;49533;-34.520;150.798;2023-07-31T02:48:22;100939.44;;;21.56;30.05
63399;BME280;49533;-34.520;150.798;2023-07-31T02:50:49;100977.78;;;21.84;30.38
63399;BME280;49533;-34.520;150.798;2023-07-31T02:53:16;100972.28;;;21.87;29.77
63399;BME280;49533;-34.520;150.798;2023-07-31T02:55:43;100987.50;;;22.01;29.81
63399;BME280;49533;-34.520;150.798;2023-07-31T02:58:10;100956.88;;;21.86;30.03
63399;BME280;49533;-34.520;150.798;2023-07-31T03:00:43;100982.06;;;22.08;30.36
63399;BME280;49533;-34.520;150.798;2023-07-31T03:03:10;100977.31;;;22.08;29.77
63399;BME280;49533;-34.520;150.798;2023-07-31T03:05:38;100971.84;;;22.12;29.69
63399;BME280;49533;-34.520;150.798;2023-07-31T03:08:05;100933.69;;;21.95;29.65
63399;BME280;49533;-34.520;150.798;2023-07-31T03:10:32;100942.75;;;21.95;29.65
63399;BME280;49533;-34.520;150.798;2023-07-31T03:12:59;100969.53;;;22.14;29.60
63399;BME280;49533;-34.520;150.798;2023-07-31T03:15:26;100925.00;;;21.96;29.61
63399;BME280;49533;-34.520;150.798;2023-07-31T03:17:54;100945.09;;;22.20;29.62
63399;BME280;49533;-34.520;150.798;2023-07-31T03:20:21;100950.25;;;22.21;28.67
63399;BME280;49533;-34.520;150.798;2023-07-31T03:22:48;100929.13;;;22.09;28.55
63399;BME280;49533;-34.520;150.798;2023-07-31T03:25:15;100929.94;;;22.13;29.29
63399;BME280;49533;-34.520;150.798;2023-07-31T03:27:42;100944.00;;;22.28;28.93
63399;BME280;49533;-34.520;150.798;2023-07-31T03:30:09;100931.28;;;22.20;28.56
63399;BME280;49533;-34.520;150.798;2023-07-31T03:32:36;100938.91;;;22.30;28.63
63399;BME280;49533;-34.520;150.798;2023-07-31T03:35:04;100919.06;;;22.24;28.31
63399;BME280;49533;-34.520;150.798;2023-07-31T03:37:31;100915.75;;;22.15;27.97
63399;BME280;49533;-34.520;150.798;2023-07-31T03:40:02;100900.66;;;22.09;27.83
63399;BME280;49533;-34.520;150.798;2023-07-31T03:42:29;100867.97;;;21.88;27.74
63399;BME280;49533;-34.520;150.798;2023-07-31T03:44:56;100938.91;;;22.30;27.99
63399;BME280;49533;-34.520;150.798;2023-07-31T03:47:23;100925.44;;;22.28;28.27
63399;BME280;49533;-34.520;150.798;2023-07-31T03:49:50;100942.16;;;22.39;28.05
63399;BME280;49533;-34.520;150.798;2023-07-31T03:52:17;100940.22;;;22.40;28.30
63399;BME280;49533;-34.520;150.798;2023-07-31T03:54:44;100914.69;;;22.23;27.70
63399;BME280;49533;-34.520;150.798;2023-07-31T03:57:12;100946.16;;;22.42;28.00
63399;BME280;49533;-34.520;150.798;2023-07-31T03:59:39;100910.34;;;22.22;27.80
63399;BME280;49533;-34.520;150.798;2023-07-31T04:02:06;100947.38;;;22.44;27.66
63399;BME280;49533;-34.520;150.798;2023-07-31T04:04:33;100926.44;;;22.47;27.60
63399;BME280;49533;-34.520;150.798;2023-07-31T04:07:00;100927.66;;;22.49;27.44
63399;BME280;49533;-34.520;150.798;2023-07-31T04:09:27;100930.41;;;22.49;27.67
63399;BME280;49533;-34.520;150.798;2023-07-31T04:11:54;100922.44;;;22.44;27.75
63399;BME280;49533;-34.520;150.798;2023-07-31T04:14:22;100910.97;;;22.42;27.38
63399;BME280;49533;-34.520;150.798;2023-07-31T04:16:50;100896.63;;;22.33;27.16
63399;BME280;49533;-34.520;150.798;2023-07-31T04:19:18;100914.56;;;22.46;27.22
63399;BME280;49533;-34.520;150.798;2023-07-31T04:21:45;100857.94;;;22.06;26.41
63399;BME280;49533;-34.520;150.798;2023-07-31T04:24:12;100901.03;;;22.38;26.31
63399;BME280;49533;-34.520;150.798;2023-07-31T04:26:39;100862.38;;;22.14;26.71
63399;BME280;49533;-34.520;150.798;2023-07-31T04:29:06;100886.69;;;22.28;26.54
63399;BME280;49533;-34.520;150.798;2023-07-31T04:31:34;100870.72;;;22.18;26.85
63399;BME280;49533;-34.520;150.798;2023-07-31T04:34:01;100916.19;;;22.47;26.72
63399;BME280;49533;-34.520;150.798;2023-07-31T04:36:28;100922.59;;;22.55;25.75
63399;BME280;49533;-34.520;150.798;2023-07-31T04:38:55;100905.00;;;22.40;25.91
63399;BME280;49533;-34.520;150.798;2023-07-31T04:41:22;100881.47;;;22.23;26.21
63399;BME280;49533;-34.520;150.798;2023-07-31T04:43:49;100815.72;;;21.79;26.45
63399;BME280;49533;-34.520;150.798;2023-07-31T04:46:16;100907.03;;;22.43;26.36
63399;BME280;49533;-34.520;150.798;2023-07-31T04:48:43;100930.56;;;22.60;26.85
63399;BME280;49533;-34.520;150.798;2023-07-31T04:51:11;100832.50;;;21.93;26.63
63399;BME280;49533;-34.520;150.798;2023-07-31T04:53:38;100933.66;;;22.55;27.06
63399;BME280;49533;-34.520;150.798;2023-07-31T04:56:05;100911.84;;;22.50;26.65
63399;BME280;49533;-34.520;150.798;2023-07-31T04:58:32;100879.59;;;22.31;26.54
63399;BME280;49533;-34.520;150.798;2023-07-31T05:00:59;100935.31;;;22.63;26.69
63399;BME280;49533;-34.520;150.798;2023-07-31T05:03:26;100936.13;;;22.64;26.68
63399;BME280;49533;-34.520;150.798;2023-07-31T05:05:53;100898.72;;;22.43;26.48
63399;BME280;49533;-34.520;150.798;2023-07-31T05:08:20;100884.84;;;22.40;26.67
63399;BME280;49533;-34.520;150.798;2023-07-31T05:10:47;100901.13;;;22.48;26.56
63399;BME280;49533;-34.520;150.798;2023-07-31T05:13:15;100899.06;;;22.38;27.10
63399;BME280;49533;-34.520;150.798;2023-07-31T05:15:42;100890.78;;;22.42;26.38
63399;BME280;49533;-34.520;150.798;2023-07-31T05:18:09;100927.81;;;22.64;26.70
63399;BME280;49533;-34.520;150.798;2023-07-31T05:20:37;100890.31;;;22.36;26.57
63399;BME280;49533;-34.520;150.798;2023-07-31T05:23:04;100944.84;;;22.66;26.65
63399;BME280;49533;-34.520;150.798;2023-07-31T05:25:31;100913.81;;;22.49;26.06
63399;BME280;49533;-34.520;150.798;2023-07-31T05:27:58;100907.44;;;22.45;26.21
63399;BME280;49533;-34.520;150.798;2023-07-31T05:30:25;100909.03;;;22.46;25.86
63399;BME280;49533;-34.520;150.798;2023-07-31T05:32:52;100936.13;;;22.64;25.84
63399;BME280;49533;-34.520;150.798;2023-07-31T05:35:19;100930.41;;;22.49;25.76
63399;BME280;49533;-34.520;150.798;2023-07-31T05:37:46;100909.78;;;22.43;25.37
63399;BME280;49533;-34.520;150.798;2023-07-31T05:40:14;100923.81;;;22.57;25.38
63399;BME280;49533;-34.520;150.798;2023-07-31T05:42:41;100913.41;;;22.47;25.76
63399;BME280;49533;-34.520;150.798;2023-07-31T05:45:08;100853.16;;;22.03;25.60
63399;BME280;49533;-34.520;150.798;2023-07-31T05:47:36;100917.31;;;22.43;25.87
63399;BME280;49533;-34.520;150.798;2023-07-31T05:50:03;100939.56;;;22.53;26.26
63399;BME280;49533;-34.520;150.798;2023-07-31T05:52:31;100945.13;;;22.57;26.57
63399;BME280;49533;-34.520;150.798;2023-07-31T05:54:58;100951.06;;;22.55;27.08
63399;BME280;49533;-34.520;150.798;2023-07-31T05:57:25;100954.19;;;22.54;27.23
63399;BME280;49533;-34.520;150.798;2023-07-31T05:59:52;100958.94;;;22.53;27.18
63399;BME280;49533;-34.520;150.798;2023-07-31T06:02:19;100958.94;;;22.53;27.02
63399;BME280;49533;-34.520;150.798;2023-07-31T06:04:46;100942.25;;;22.46;27.65
63399;BME280;49533;-34.520;150.798;2023-07-31T06:07:13;100917.47;;;22.23;28.41
63399;BME280;49533;-34.520;150.798;2023-07-31T06:09:40;100966.84;;;22.51;28.64
63399;BME280;49533;-34.520;150.798;2023-07-31T06:12:08;100974.34;;;22.51;29.19
63399;BME280;49533;-34.520;150.798;2023-07-31T06:14:35;100965.25;;;22.50;29.17
63399;BME280;49533;-34.520;150.798;2023-07-31T06:17:03;100960.81;;;22.42;29.67
63399;BME280;49533;-34.520;150.798;2023-07-31T06:19:30;100980.25;;;22.49;29.61
63399;BME280;49533;-34.520;150.798;2023-07-31T06:21:57;100963.47;;;22.35;29.88
63399;BME280;49533;-34.520;150.798;2023-07-31T06:24:24;100973.78;;;22.38;29.84
63399;BME280;49533;-34.520;150.798;2023-07-31T06:26:51;100988.09;;;22.44;29.61
63399;BME280;49533;-34.520;150.798;2023-07-31T06:29:18;100980.09;;;22.35;29.34
63399;BME280;49533;-34.520;150.798;2023-07-31T06:31:46;100945.41;;;22.14;29.18
63399;BME280;49533;-34.520;150.798;2023-07-31T06:34:13;100935.81;;;22.08;28.54
63399;BME280;49533;-34.520;150.798;2023-07-31T06:36:40;100963.28;;;22.21;27.82
63399;BME280;49533;-34.520;150.798;2023-07-31T06:39:10;100993.22;;;22.42;27.61
63399;BME280;49533;-34.520;150.798;2023-07-31T06:41:37;100957.75;;;22.21;28.17
63399;BME280;49533;-34.520;150.798;2023-07-31T06:44:07;100945.31;;;22.07;28.14
63399;BME280;49533;-34.520;150.798;2023-07-31T06:46:37;101001.56;;;22.45;27.95
63399;BME280;49533;-34.520;150.798;2023-07-31T06:49:04;100958.06;;;22.15;27.90
63399;BME280;49533;-34.520;150.798;2023-07-31T06:51:31;100992.31;;;22.34;27.45
63399;BME280;49533;-34.520;150.798;2023-07-31T06:53:59;101011.44;;;22.43;28.17
63399;BME280;49533;-34.520;150.798;2023-07-31T06:56:26;100973.84;;;22.11;28.33
63399;BME280;49533;-34.520;150.798;2023-07-31T06:58:53;100989.00;;;22.21;27.97
63399;BME280;49533;-34.520;150.798;2023-07-31T07:01:20;101025.22;;;22.39;28.16
63399;BME280;49533;-34.520;150.798;2023-07-31T07:03:47;101015.56;;;22.26;26.69
63399;BME280;49533;-34.520;150.798;2023-07-31T07:06:17;101026.28;;;22.31;28.51
63399;BME280;49533;-34.520;150.798;2023-07-31T07:08:44;100992.31;;;22.04;27.70
63399;BME280;49533;-34.520;150.798;2023-07-31T07:11:11;101016.59;;;22.18;27.28
63399;BME280;49533;-34.520;150.798;2023-07-31T07:13:38;101040.19;;;22.34;26.74
63399;BME280;49533;-34.520;150.798;2023-07-31T07:16:05;101034.50;;;22.24;26.39
63399;BME280;49533;-34.520;150.798;2023-07-31T07:18:36;101031.63;;;22.17;26.79
63399;BME280;49533;-34.520;150.798;2023-07-31T07:21:03;101031.72;;;21.97;27.82
63399;BME280;49533;-34.520;150.798;2023-07-31T07:23:31;101054.91;;;22.15;27.71
63399;BME280;49533;-34.520;150.798;2023-07-31T07:25:59;101059.28;;;22.17;27.59
63399;BME280;49533;-34.520;150.798;2023-07-31T07:28:29;101057.25;;;22.13;26.90
63399;BME280;49533;-34.520;150.798;2023-07-31T07:30:56;101045.34;;;22.09;27.67
63399;BME280;49533;-34.520;150.798;2023-07-31T07:33:24;101059.97;;;22.10;28.11
63399;BME280;49533;-34.520;150.798;2023-07-31T07:35:51;101052.47;;;22.10;27.78
63399;BME280;49533;-34.520;150.798;2023-07-31T07:38:18;101053.22;;;22.07;27.13
63399;BME280;49533;-34.520;150.798;2023-07-31T07:40:45;101019.84;;;21.70;26.87
63399;BME280;49533;-34.520;150.798;2023-07-31T07:43:16;101016.28;;;21.69;27.53
63399;BME280;49533;-34.520;150.798;2023-07-31T07:45:43;101073.78;;;22.06;27.12
63399;BME280;49533;-34.520;150.798;2023-07-31T07:48:10;101050.84;;;21.83;28.01
63399;BME280;49533;-34.520;150.798;2023-07-31T07:50:39;101037.56;;;21.65;28.11
63399;BME280;49533;-34.520;150.798;2023-07-31T07:53:06;101078.59;;;21.86;28.30
63399;BME280;49533;-34.520;150.798;2023-07-31T07:55:33;101089.34;;;21.91;27.27
63399;BME280;49533;-34.520;150.798;2023-07-31T07:58:00;101085.66;;;21.84;27.77
63399;BME280;49533;-34.520;150.798;2023-07-31T08:00:27;101024.47;;;21.39;27.96
63399;BME280;49533;-34.520;150.798;2023-07-31T08:02:54;101050.84;;;21.56;28.34
63399;BME280;49533;-34.520;150.798;2023-07-31T08:05:23;101098.25;;;21.81;28.45
63399;BME280;49533;-34.520;150.798;2023-07-31T08:07:51;101092.13;;;21.68;28.54
63399;BME280;49533;-34.520;150.798;2023-07-31T08:10:18;101077.28;;;21.57;28.69
63399;BME280;49533;-34.520;150.798;2023-07-31T08:12:47;101116.72;;;21.74;28.60
63399;BME280;49533;-34.520;150.798;2023-07-31T08:15:15;101101.34;;;21.53;29.10
63399;BME280;49533;-34.520;150.798;2023-07-31T08:17:42;101116.44;;;21.59;28.98
63399;BME280;49533;-34.520;150.798;2023-07-31T08:20:10;101118.13;;;21.64;29.03
63399;BME280;49533;-34.520;150.798;2023-07-31T08:22:37;101121.00;;;21.48;29.10
63399;BME280;49533;-34.520;150.798;2023-07-31T08:25:05;101091.75;;;21.27;29.39
63399;BME280;49533;-34.520;150.798;2023-07-31T08:27:33;101077.22;;;21.11;29.59
63399;BME280;49533;-34.520;150.798;2023-07-31T08:30:00;101129.50;;;21.39;29.52
63399;BME280;49533;-34.520;150.798;2023-07-31T08:32:27;101130.31;;;21.40;29.77
63399;BME280;49533;-34.520;150.798;2023-07-31T08:34:54;101116.44;;;21.17;30.29
63399;BME280;49533;-34.520;150.798;2023-07-31T08:37:21;101132.19;;;21.16;30.24
63399;BME280;49533;-34.520;150.798;2023-07-31T08:39:48;101148.91;;;21.23;30.03
63399;BME280;49533;-34.520;150.798;2023-07-31T08:42:15;101106.47;;;20.93;30.52
63399;BME280;49533;-34.520;150.798;2023-07-31T08:44:43;101138.19;;;20.99;30.53
63399;BME280;49533;-34.520;150.798;2023-07-31T08:47:12;101164.34;;;21.05;30.77
63399;BME280;49533;-34.520;150.798;2023-07-31T08:49:39;101159.53;;;21.02;30.66
63399;BME280;49533;-34.520;150.798;2023-07-31T08:52:08;101123.97;;;20.81;30.68
63399;BME280;49533;-34.520;150.798;2023-07-31T08:54:36;101172.63;;;21.05;30.90
63399;BME280;49533;-34.520;150.798;2023-07-31T08:57:04;101164.34;;;21.05;31.21
63399;BME280;49533;-34.520;150.798;2023-07-31T08:59:35;101167.53;;;21.07;31.22
63399;BME280;49533;-34.520;150.798;2023-07-31T09:02:06;101162.81;;;21.08;31.77
63399;BME280;49533;-34.520;150.798;2023-07-31T09:04:34;101134.81;;;20.90;31.79
63399;BME280;49533;-34.520;150.798;2023-07-31T09:07:03;101157.22;;;21.04;31.99
63399;BME280;49533;-34.520;150.798;2023-07-31T09:09:31;101166.94;;;20.98;31.91
63399;BME280;49533;-34.520;150.798;2023-07-31T09:11:59;101169.63;;;20.94;32.10
63399;BME280;49533;-34.520;150.798;2023-07-31T09:14:26;101166.78;;;20.91;32.32
63399;BME280;49533;-34.520;150.798;2023-07-31T09:16:55;101180.00;;;20.81;33.01
63399;BME280;49533;-34.520;150.798;2023-07-31T09:19:34;101164.06;;;20.75;33.10
63399;BME280;49533;-34.520;150.798;2023-07-31T09:22:05;101153.94;;;20.63;33.06
63399;BME280;49533;-34.520;150.798;2023-07-31T09:24:33;101186.25;;;20.78;33.40
63399;BME280;49533;-34.520;150.798;2023-07-31T09:27:01;101174.09;;;20.63;32.99
63399;BME280;49533;-34.520;150.798;2023-07-31T09:29:29;101182.44;;;20.67;33.28
63399;BME280;49533;-34.520;150.798;2023-07-31T09:31:56;101193.50;;;20.67;33.28
63399;BME280;49533;-34.520;150.798;2023-07-31T09:34:37;101191.97;;;20.70;33.20
63399;BME280;49533;-34.520;150.798;2023-07-31T09:37:06;101188.75;;;20.68;33.68
63399;BME280;49533;-34.520;150.798;2023-07-31T09:39:46;101179.25;;;20.49;33.69
63399;BME280;49533;-34.520;150.798;2023-07-31T09:42:13;101171.84;;;20.53;33.80
63399;BME280;49533;-34.520;150.798;2023-07-31T09:44:41;101187.97;;;20.67;33.68
63399;BME280;49533;-34.520;150.798;2023-07-31T09:47:22;101191.97;;;20.70;33.47
63399;BME280;49533;-34.520;150.798;2023-07-31T09:49:50;101193.94;;;20.69;33.88
63399;BME280;49533;-34.520;150.798;2023-07-31T09:52:18;101191.97;;;20.70;33.88
63399;BME280;49533;-34.520;150.798;2023-07-31T09:54:45;101142.22;;;20.34;34.16
63399;BME280;49533;-34.520;150.798;2023-07-31T09:57:13;101160.13;;;20.40;33.87
63399;BME280;49533;-34.520;150.798;2023-07-31T09:59:43;101209.09;;;20.59;34.19
63399;BME280;49533;-34.520;150.798;2023-07-31T10:02:16;101091.81;;;19.86;33.82
63399;BME280;49533;-34.520;150.798;2023-07-31T10:04:49;101213.88;;;20.47;34.04
63399;BME280;49533;-34.520;150.798;2023-07-31T10:07:18;101220.84;;;20.56;34.00
63399;BME280;49533;-34.520;150.798;2023-07-31T10:09:47;101186.38;;;20.34;34.17
63399;BME280;49533;-34.520;150.798;2023-07-31T10:12:16;101235.00;;;20.55;34.20
63399;BME280;49533;-34.520;150.798;2023-07-31T10:14:45;101225.81;;;20.51;34.23
63399;BME280;49533;-34.520;150.798;2023-07-31T10:17:13;101186.13;;;20.24;34.31
63399;BME280;49533;-34.520;150.798;2023-07-31T10:19:41;101202.75;;;20.27;34.55
63399;BME280;49533;-34.520;150.798;2023-07-31T10:22:09;101209.16;;;20.31;34.32
63399;BME280;49533;-34.520;150.798;2023-07-31T10:24:37;101175.63;;;20.13;34.48
63399;BME280;49533;-34.520;150.798;2023-07-31T10:27:05;101224.75;;;20.39;34.36
63399;BME280;49533;-34.520;150.798;2023-07-31T10:29:34;101205.78;;;20.22;34.79
63399;BME280;49533;-34.520;150.798;2023-07-31T10:32:02;101186.47;;;20.06;34.53
63399;BME280;49533;-34.520;150.798;2023-07-31T10:34:34;101190.75;;;20.04;34.52
63399;BME280;49533;-34.520;150.798;2023-07-31T10:37:21;101223.59;;;20.25;34.86
63399;BME280;49533;-34.520;150.798;2023-07-31T10:40:26;101229.47;;;20.23;34.85
63399;BME280;49533;-34.520;150.798;2023-07-31T10:42:55;101213.34;;;20.09;34.80
63399;BME280;49533;-34.520;150.798;2023-07-31T10:45:35;101216.47;;;20.08;34.70
63399;BME280;49533;-34.520;150.798;2023-07-31T10:48:05;101232.50;;;20.18;34.83
63399;BME280;49533;-34.520;150.798;2023-07-31T10:50:37;101228.84;;;20.14;34.74
63399;BME280;49533;-34.520;150.798;2023-07-31T10:53:05;101226.88;;;20.14;34.70
63399;BME280;49533;-34.520;150.798;2023-07-31T10:55:40;101237.91;;;20.14;34.70
63399;BME280;49533;-34.520;150.798;2023-07-31T10:58:11;101237.81;;;20.11;34.77
63399;BME280;49533;-34.520;150.798;2023-07-31T11:00:40;101247.63;;;20.08;34.72
63399;BME280;49533;-34.520;150.798;2023-07-31T11:03:10;101230.34;;;19.95;34.91
63399;BME280;49533;-34.520;150.798;2023-07-31T11:05:43;101235.75;;;19.92;34.85
63399;BME280;49533;-34.520;150.798;2023-07-31T11:08:15;101230.31;;;19.80;34.92
63399;BME280;49533;-34.520;150.798;2023-07-31T11:10:44;101217.31;;;19.80;34.64
63399;BME280;49533;-34.520;150.798;2023-07-31T11:13:12;101244.28;;;19.87;34.80
63399;BME280;49533;-34.520;150.798;2023-07-31T11:15:39;101280.06;;;19.99;34.77
63399;BME280;49533;-34.520;150.798;2023-07-31T11:18:06;101290.31;;;19.98;34.73
63399;BME280;49533;-34.520;150.798;2023-07-31T11:20:35;101281.56;;;19.96;34.97
63399;BME280;49533;-34.520;150.798;2023-07-31T11:23:06;101279.63;;;19.97;34.81
63399;BME280;49533;-34.520;150.798;2023-07-31T11:25:35;101280.78;;;19.96;34.69
63399;BME280;49533;-34.520;150.798;2023-07-31T11:28:05;101277.47;;;19.90;34.98
63399;BME280;49533;-34.520;150.798;2023-07-31T11:30:33;101236.81;;;19.59;34.72
63399;BME280;49533;-34.520;150.798;2023-07-31T11:33:03;101285.19;;;19.85;34.80
63399;BME280;49533;-34.520;150.798;2023-07-31T11:35:35;101268.25;;;19.70;34.95
63399;BME280;49533;-34.520;150.798;2023-07-31T11:38:03;101271.66;;;19.80;34.98
63399;BME280;49533;-34.520;150.798;2023-07-31T11:40:30;101277.19;;;19.80;34.71
63399;BME280;49533;-34.520;150.798;2023-07-31T11:42:58;101268.97;;;19.67;34.89
63399;BME280;49533;-34.520;150.798;2023-07-31T11:45:27;101279.03;;;19.75;34.98
63399;BME280;49533;-34.520;150.798;2023-07-31T11:47:55;101270.75;;;19.75;34.86
63399;BME280;49533;-34.520;150.798;2023-07-31T11:50:23;101282.59;;;19.76;34.93
63399;BME280;49533;-34.520;150.798;2023-07-31T11:52:55;101265.16;;;19.72;34.79
63399;BME280;49533;-34.520;150.798;2023-07-31T11:55:24;101278.69;;;19.77;34.73
63399;BME280;49533;-34.520;150.798;2023-07-31T11:57:55;101276.63;;;19.74;34.86
63399;BME280;49533;-34.520;150.798;2023-07-31T12:00:23;101171.69;;;18.98;34.90
63399;BME280;49533;-34.520;150.798;2023-07-31T12:02:51;101181.91;;;18.98;34.97
63399;BME280;49533;-34.520;150.798;2023-07-31T12:05:18;101289.84;;;19.68;34.62
63399;BME280;49533;-34.520;150.798;2023-07-31T12:07:51;101289.50;;;19.70;34.81
63399;BME280;49533;-34.520;150.798;2023-07-31T12:10:29;101285.25;;;19.60;34.66
63399;BME280;49533;-34.520;150.798;2023-07-31T12:13:04;101291.81;;;19.68;34.87
63399;BME280;49533;-34.520;150.798;2023-07-31T12:15:39;101289.28;;;19.63;34.74
63399;BME280;49533;-34.520;150.798;2023-07-31T12:18:11;101292.03;;;19.63;34.85
63399;BME280;49533;-34.520;150.798;2023-07-31T12:20:44;101280.44;;;19.57;34.73
63399;BME280;49533;-34.520;150.798;2023-07-31T12:23:20;101285.38;;;19.64;34.87
63399;BME280;49533;-34.520;150.798;2023-07-31T12:26:06;101257.97;;;19.43;34.60
63399;BME280;49533;-34.520;150.798;2023-07-31T12:28:44;101285.25;;;19.60;34.47